Time;durP1;ratioP1;P1;durP2;ratioP2;P2;SDS_P1;SDS_P2;PMS_P1;PMS_P2;Temp;Humidity;BMP_temperature;BMP_pressure;BME280_temperature;BME280_humidity;BME280_pressure;Samples;Min_cycle;Max_cycle;Signal;HPM_P1;HPM_P2
2022/11/09 00:01:00;;;;;;;;;;;12.20;85.60;;;;;;4996843;28;19905;-46
2022/11/09 00:03:26;;;;;;;;;;;12.10;85.80;;;;;;4995172;28;20252;-47
2022/11/09 00:05:56;;;;;;;;;;;12.00;85.90;;;;;;4995618;28;19920;-50
2022/11/09 00:08:22;;;;;;;;;;;11.90;86.10;;;;;;4995537;28;19920;-50
2022/11/09 00:10:49;;;;;;;;;;;11.90;86.10;;;;;;4996341;28;20250;-50
2022/11/09 00:13:15;;;;;;;;;;;11.90;86.30;;;;;;5010578;28;20354;-47
2022/11/09 00:15:42;;;;;;;;;;;11.80;86.30;;;;;;4995729;28;19928;-50
2022/11/09 00:18:09;;;;;;;;;;;11.70;86.40;;;;;;5008089;28;19921;-47
2022/11/09 00:20:35;;;;;;;;;;;11.60;86.60;;;;;;5011528;28;20288;-47
2022/11/09 00:23:02;;;;;;;;;;;11.60;86.80;;;;;;5011354;28;19993;-47
2022/11/09 00:25:28;;;;;;;;;;;11.50;87.00;;;;;;4996060;28;19914;-47
2022/11/09 00:27:54;;;;;;;;;;;11.50;87.20;;;;;;4996192;28;19910;-47
2022/11/09 00:30:21;;;;;;;;;;;11.50;87.30;;;;;;4996321;28;19941;-46
2022/11/09 00:32:48;;;;;;;;;;;11.40;87.40;;;;;;5005681;28;19913;-47
2022/11/09 00:35:14;;;;;;;;;;;11.40;87.50;;;;;;5015574;28;19909;-46
2022/11/09 00:37:39;;;;;;;;;;;11.40;87.50;;;;;;5015557;28;19910;-46
2022/11/09 00:40:06;;;;;;;;;;;11.30;87.70;;;;;;4999015;28;19952;-45
2022/11/09 00:42:31;;;;;;;;;;;11.30;87.80;;;;;;5010199;28;19920;-46
2022/11/09 00:44:58;;;;;;;;;;;11.30;88.10;;;;;;4995982;28;19905;-47
2022/11/09 00:47:24;;;;;;;;;;;11.30;88.30;;;;;;5000317;28;20437;-46
2022/11/09 00:49:49;;;;;;;;;;;11.40;88.30;;;;;;5011355;28;19917;-47
2022/11/09 00:52:16;;;;;;;;;;;11.40;88.30;;;;;;4995367;28;19913;-46
2022/11/09 00:54:45;;;;;;;;;;;11.40;88.30;;;;;;4995393;28;19953;-47
2022/11/09 00:57:15;;;;;;;;;;;11.40;88.20;;;;;;4995931;28;19951;-47
2022/11/09 00:59:42;;;;;;;;;;;11.40;88.10;;;;;;4999591;28;19909;-47
2022/11/09 01:02:08;;;;;;;;;;;11.40;88.20;;;;;;5012945;28;19913;-48
2022/11/09 01:04:35;;;;;;;;;;;11.50;88.30;;;;;;5009036;28;19926;-46
2022/11/09 01:07:00;;;;;;;;;;;11.50;88.30;;;;;;5014977;28;19920;-49
2022/11/09 01:09:27;;;;;;;;;;;11.60;88.20;;;;;;5015007;28;19905;-46
2022/11/09 01:11:52;;;;;;;;;;;11.60;88.20;;;;;;5014253;28;19925;-47
2022/11/09 01:14:18;;;;;;;;;;;11.70;88.00;;;;;;5009682;28;19918;-48
2022/11/09 01:16:45;;;;;;;;;;;11.70;88.00;;;;;;5000512;28;19948;-46
2022/11/09 01:19:12;;;;;;;;;;;11.80;87.90;;;;;;5013751;28;20386;-47
2022/11/09 01:21:39;;;;;;;;;;;11.90;87.70;;;;;;4997576;28;19911;-47
2022/11/09 01:24:06;;;;;;;;;;;11.90;87.50;;;;;;5014862;28;19905;-46
2022/11/09 01:26:32;;;;;;;;;;;12.00;87.30;;;;;;4998273;28;20242;-50
2022/11/09 01:28:59;;;;;;;;;;;12.00;87.20;;;;;;4994725;28;19909;-47
2022/11/09 01:31:29;;;;;;;;;;;12.10;87.10;;;;;;4994642;28;19917;-47
2022/11/09 01:33:57;;;;;;;;;;;12.10;87.00;;;;;;5027271;28;19963;-46
2022/11/09 01:36:24;;;;;;;;;;;12.10;86.90;;;;;;4997612;28;19918;-46
2022/11/09 01:38:49;;;;;;;;;;;12.10;86.70;;;;;;4994764;28;19912;-47
2022/11/09 01:41:24;;;;;;;;;;;12.10;86.90;;;;;;4995102;28;19905;-46
2022/11/09 01:44:07;;;;;;;;;;;12.00;86.80;;;;;;4993644;28;20255;-46
2022/11/09 01:46:37;;;;;;;;;;;12.00;86.80;;;;;;4998284;28;19920;-46
2022/11/09 01:49:08;;;;;;;;;;;12.00;87.00;;;;;;5013201;28;19921;-46
2022/11/09 01:51:47;;;;;;;;;;;12.00;87.20;;;;;;5005209;28;19925;-46
2022/11/09 01:54:21;;;;;;;;;;;12.00;87.20;;;;;;4993817;28;19918;-46
2022/11/09 01:56:50;;;;;;;;;;;12.00;87.30;;;;;;4994708;28;19996;-47
2022/11/09 01:59:24;;;;;;;;;;;12.10;87.50;;;;;;4993223;28;19914;-46
2022/11/09 02:01:50;;;;;;;;;;;12.20;87.30;;;;;;4998351;28;19921;-46
2022/11/09 02:04:20;;;;;;;;;;;12.20;87.20;;;;;;5013173;28;19910;-47
2022/11/09 02:06:46;;;;;;;;;;;12.20;87.30;;;;;;5012261;28;19964;-46
2022/11/09 02:09:32;;;;;;;;;;;12.30;87.30;;;;;;4993363;28;19913;-48
2022/11/09 02:11:58;;;;;;;;;;;12.30;87.20;;;;;;4994218;28;19906;-46
2022/11/09 02:14:27;;;;;;;;;;;12.40;87.20;;;;;;4992412;28;20323;-47
2022/11/09 02:16:55;;;;;;;;;;;12.40;87.30;;;;;;4994827;28;19971;-46
2022/11/09 02:19:20;;;;;;;;;;;12.40;87.20;;;;;;5013603;28;19917;-48
2022/11/09 02:21:47;;;;;;;;;;;12.40;87.20;;;;;;5013061;28;19909;-47
2022/11/09 02:24:14;;;;;;;;;;;12.30;87.20;;;;;;4994196;28;19917;-47
2022/11/09 02:26:44;;;;;;;;;;;12.30;87.30;;;;;;4994265;28;19917;-47
2022/11/09 02:29:13;;;;;;;;;;;12.20;87.30;;;;;;4994700;28;19959;-46
2022/11/09 02:31:41;;;;;;;;;;;12.20;87.50;;;;;;4997290;28;19917;-46
2022/11/09 02:34:08;;;;;;;;;;;12.10;87.50;;;;;;4994277;28;19921;-48
2022/11/09 02:36:35;;;;;;;;;;;12.10;87.70;;;;;;4993998;28;19944;-46
2022/11/09 02:39:02;;;;;;;;;;;12.10;87.60;;;;;;5013006;28;19905;-46
2022/11/09 02:41:29;;;;;;;;;;;12.00;87.80;;;;;;5011591;28;19910;-46
2022/11/09 02:43:58;;;;;;;;;;;12.00;88.00;;;;;;4993162;28;19909;-47
2022/11/09 02:46:30;;;;;;;;;;;12.00;88.00;;;;;;4993238;28;20008;-46
2022/11/09 02:48:57;;;;;;;;;;;12.00;88.00;;;;;;5013836;28;19912;-46
2022/11/09 02:51:24;;;;;;;;;;;12.00;88.00;;;;;;5007582;28;20114;-46
2022/11/09 02:53:51;;;;;;;;;;;12.00;88.00;;;;;;4993221;28;20275;-46
2022/11/09 02:56:16;;;;;;;;;;;12.00;88.00;;;;;;4994103;28;19957;-48
2022/11/09 02:58:42;;;;;;;;;;;12.00;88.00;;;;;;4997797;28;19956;-46
2022/11/09 03:01:08;;;;;;;;;;;12.00;88.00;;;;;;5011779;28;19956;-46
2022/11/09 03:03:36;;;;;;;;;;;12.00;88.20;;;;;;5013622;28;19909;-48
2022/11/09 03:06:03;;;;;;;;;;;12.00;88.10;;;;;;5013303;28;19906;-46
2022/11/09 03:08:28;;;;;;;;;;;11.90;88.10;;;;;;5012020;28;19909;-46
2022/11/09 03:10:55;;;;;;;;;;;11.90;88.20;;;;;;5013323;28;19906;-47
2022/11/09 03:13:22;;;;;;;;;;;12.00;88.20;;;;;;5013529;28;19909;-46
2022/11/09 03:15:47;;;;;;;;;;;11.90;88.10;;;;;;5011439;28;19921;-46
2022/11/09 03:18:14;;;;;;;;;;;11.90;88.20;;;;;;5007985;28;19918;-47
2022/11/09 03:20:41;;;;;;;;;;;11.90;88.10;;;;;;4993675;28;20270;-46
2022/11/09 03:23:09;;;;;;;;;;;11.90;88.10;;;;;;4993632;28;19933;-46
2022/11/09 03:25:36;;;;;;;;;;;11.90;88.30;;;;;;4993558;28;20008;-46
2022/11/09 03:28:05;;;;;;;;;;;11.90;88.20;;;;;;4996074;28;19905;-46
2022/11/09 03:30:32;;;;;;;;;;;11.90;88.30;;;;;;5002527;28;20398;-48
2022/11/09 03:33:00;;;;;;;;;;;11.80;88.40;;;;;;5015471;28;20023;-46
2022/11/09 03:35:27;;;;;;;;;;;11.80;88.60;;;;;;4998046;28;19920;-47
2022/11/09 03:37:52;;;;;;;;;;;11.80;88.60;;;;;;4997234;28;19914;-47
2022/11/09 03:40:18;;;;;;;;;;;11.80;88.60;;;;;;4996893;28;19906;-46
2022/11/09 03:42:47;;;;;;;;;;;11.80;88.60;;;;;;4997093;28;19906;-46
2022/11/09 03:45:14;;;;;;;;;;;11.70;88.80;;;;;;5002784;28;19913;-47
2022/11/09 03:47:45;;;;;;;;;;;11.70;88.70;;;;;;5015266;28;19920;-47
2022/11/09 03:50:13;;;;;;;;;;;11.80;88.70;;;;;;5009598;28;19980;-46
2022/11/09 03:52:42;;;;;;;;;;;11.70;88.70;;;;;;4997025;28;19905;-46
2022/11/09 03:55:08;;;;;;;;;;;11.80;88.80;;;;;;4995568;28;20016;-47
2022/11/09 03:57:34;;;;;;;;;;;11.70;88.70;;;;;;4996828;28;20345;-46
2022/11/09 04:00:00;;;;;;;;;;;11.80;88.60;;;;;;5002693;28;19913;-47
2022/11/09 04:02:27;;;;;;;;;;;11.70;88.80;;;;;;5016275;28;19937;-47
2022/11/09 04:04:54;;;;;;;;;;;11.70;88.80;;;;;;5016297;28;19917;-46
2022/11/09 04:07:21;;;;;;;;;;;11.60;88.90;;;;;;5015267;28;19921;-46
2022/11/09 04:09:47;;;;;;;;;;;11.70;89.00;;;;;;5010934;28;19986;-46
2022/11/09 04:12:14;;;;;;;;;;;11.70;89.00;;;;;;4996801;28;19913;-46
2022/11/09 04:14:40;;;;;;;;;;;11.70;88.80;;;;;;5001498;28;20224;-48
2022/11/09 04:17:07;;;;;;;;;;;11.70;88.90;;;;;;5022613;28;19996;-46
2022/11/09 04:19:36;;;;;;;;;;;11.60;88.90;;;;;;5014996;28;20323;-46
2022/11/09 04:22:02;;;;;;;;;;;11.60;89.10;;;;;;5015396;28;20517;-46
2022/11/09 04:24:29;;;;;;;;;;;11.60;89.10;;;;;;5004521;28;19971;-46
2022/11/09 04:26:56;;;;;;;;;;;11.50;89.10;;;;;;4996183;28;19913;-46
2022/11/09 04:29:23;;;;;;;;;;;11.50;89.20;;;;;;4997461;28;19907;-46
2022/11/09 04:31:50;;;;;;;;;;;11.50;89.20;;;;;;5010621;28;20256;-48
2022/11/09 04:34:21;;;;;;;;;;;11.50;89.20;;;;;;4995969;28;19913;-46
2022/11/09 04:36:46;;;;;;;;;;;11.40;89.30;;;;;;4995819;28;20328;-46
2022/11/09 04:39:13;;;;;;;;;;;11.40;89.30;;;;;;4995349;28;20118;-46
2022/11/09 04:41:40;;;;;;;;;;;11.40;89.40;;;;;;4996034;28;19918;-46
2022/11/09 04:44:05;;;;;;;;;;;11.40;89.40;;;;;;4996662;28;19910;-46
2022/11/09 04:46:32;;;;;;;;;;;11.40;89.40;;;;;;5010641;28;20319;-47
2022/11/09 04:48:58;;;;;;;;;;;11.40;89.50;;;;;;4995805;28;19917;-46
2022/11/09 04:51:24;;;;;;;;;;;11.40;89.60;;;;;;4995269;28;19934;-46
2022/11/09 04:53:51;;;;;;;;;;;11.40;89.70;;;;;;4995579;28;19909;-46
2022/11/09 04:56:17;;;;;;;;;;;11.40;89.80;;;;;;4994631;28;20706;-46
2022/11/09 04:58:46;;;;;;;;;;;11.40;89.50;;;;;;4995416;28;19956;-46
2022/11/09 05:01:13;;;;;;;;;;;11.40;89.40;;;;;;5014543;28;19933;-45
2022/11/09 05:03:43;;;;;;;;;;;11.40;89.30;;;;;;5015192;28;19920;-46
2022/11/09 05:06:54;;;;;;;;;;;11.50;89.10;;;;;;5002985;28;19914;-46
2022/11/09 05:08:59;;;;;;;;;;;11.50;89.00;;;;;;4987975;28;19975;-46
2022/11/09 05:11:31;;;;;;;;;;;11.50;88.90;;;;;;4995663;28;19913;-46
2022/11/09 05:13:58;;;;;;;;;;;11.40;88.90;;;;;;5013190;28;19924;-46
2022/11/09 05:16:26;;;;;;;;;;;11.40;88.80;;;;;;5013530;28;19905;-46
2022/11/09 05:18:52;;;;;;;;;;;11.40;88.80;;;;;;5009568;28;19921;-46
2022/11/09 05:21:17;;;;;;;;;;;11.40;88.90;;;;;;4995151;28;20378;-46
2022/11/09 05:23:57;;;;;;;;;;;11.40;88.90;;;;;;5000636;28;20259;-46
2022/11/09 05:26:36;;;;;;;;;;;11.40;88.80;;;;;;5014851;28;19913;-46
2022/11/09 05:29:03;;;;;;;;;;;11.40;88.70;;;;;;5012680;28;19971;-45
2022/11/09 05:31:29;;;;;;;;;;;11.40;88.80;;;;;;5013627;28;20299;-46
2022/11/09 05:33:58;;;;;;;;;;;11.30;88.80;;;;;;5003123;28;20045;-46
2022/11/09 05:36:26;;;;;;;;;;;11.30;88.80;;;;;;4995054;28;20004;-46
2022/11/09 05:38:53;;;;;;;;;;;11.30;88.90;;;;;;4995121;28;19905;-46
2022/11/09 05:41:20;;;;;;;;;;;11.30;89.00;;;;;;4998423;28;19914;-46
2022/11/09 05:43:48;;;;;;;;;;;11.20;89.00;;;;;;5000823;28;20512;-46
2022/11/09 05:46:15;;;;;;;;;;;11.20;89.10;;;;;;5014551;28;19909;-46
2022/11/09 05:48:43;;;;;;;;;;;11.20;89.10;;;;;;5013404;28;19905;-46
2022/11/09 05:51:11;;;;;;;;;;;11.20;89.10;;;;;;4994657;28;19915;-46
2022/11/09 05:53:39;;;;;;;;;;;11.20;89.00;;;;;;4993550;28;20272;-46
2022/11/09 05:56:09;;;;;;;;;;;11.20;89.10;;;;;;4994743;28;20312;-46
2022/11/09 05:58:37;;;;;;;;;;;11.30;89.20;;;;;;5001483;28;19913;-46
2022/11/09 06:01:04;;;;;;;;;;;11.30;89.20;;;;;;5013159;28;20318;-46
2022/11/09 06:03:31;;;;;;;;;;;11.40;89.40;;;;;;5008960;28;20335;-46
2022/11/09 06:06:01;;;;;;;;;;;11.40;89.30;;;;;;4994475;28;19906;-46
2022/11/09 06:08:31;;;;;;;;;;;11.40;89.20;;;;;;5008788;28;19917;-46
2022/11/09 06:11:03;;;;;;;;;;;11.40;89.20;;;;;;4994358;28;20320;-47
2022/11/09 06:13:29;;;;;;;;;;;11.40;89.10;;;;;;4996143;28;19949;-46
2022/11/09 06:15:58;;;;;;;;;;;11.40;89.20;;;;;;5013901;28;20239;-48
2022/11/09 06:18:24;;;;;;;;;;;11.40;89.10;;;;;;5013723;28;19931;-46
2022/11/09 06:20:52;;;;;;;;;;;11.40;89.10;;;;;;5013843;28;19940;-46
2022/11/09 06:23:24;;;;;;;;;;;11.40;89.10;;;;;;5008464;28;20031;-45
2022/11/09 06:25:52;;;;;;;;;;;11.40;89.20;;;;;;4994161;28;19917;-45
2022/11/09 06:28:19;;;;;;;;;;;11.40;89.20;;;;;;4997674;28;20254;-48
2022/11/09 06:30:44;;;;;;;;;;;11.50;89.10;;;;;;5012393;28;19919;-45
2022/11/09 06:33:11;;;;;;;;;;;11.40;89.10;;;;;;5008235;28;19918;-46
2022/11/09 06:35:37;;;;;;;;;;;11.40;89.00;;;;;;4997931;28;19960;-46
2022/11/09 06:38:04;;;;;;;;;;;11.40;89.10;;;;;;5012403;28;19953;-46
2022/11/09 06:40:32;;;;;;;;;;;11.40;89.20;;;;;;5005493;28;20000;-47
2022/11/09 06:42:58;;;;;;;;;;;11.40;89.10;;;;;;4994210;28;19965;-46
2022/11/09 06:45:25;;;;;;;;;;;11.40;89.20;;;;;;5008131;28;19951;-46
2022/11/09 06:47:55;;;;;;;;;;;11.40;89.30;;;;;;4976996;28;19910;-45
2022/11/09 06:50:22;;;;;;;;;;;11.40;89.40;;;;;;4994030;28;20231;-46
2022/11/09 06:52:48;;;;;;;;;;;11.40;89.50;;;;;;4993157;28;20601;-45
2022/11/09 06:55:15;;;;;;;;;;;11.40;89.30;;;;;;4993902;28;19964;-46
2022/11/09 06:57:41;;;;;;;;;;;11.40;89.20;;;;;;4994018;28;19909;-51
2022/11/09 07:00:07;;;;;;;;;;;11.40;89.30;;;;;;5012961;28;19909;-45
2022/11/09 07:02:32;;;;;;;;;;;11.40;89.40;;;;;;4999094;28;19961;-45
2022/11/09 07:04:59;;;;;;;;;;;11.40;89.40;;;;;;5016753;28;19909;-45
2022/11/09 07:07:25;;;;;;;;;;;11.40;89.50;;;;;;5017243;28;19905;-46
2022/11/09 07:09:52;;;;;;;;;;;11.50;89.50;;;;;;5012027;28;19910;-46
2022/11/09 07:12:18;;;;;;;;;;;11.60;89.20;;;;;;4997615;28;19906;-45
2022/11/09 07:14:45;;;;;;;;;;;11.60;88.90;;;;;;5014582;28;19986;-46
2022/11/09 07:17:11;;;;;;;;;;;11.60;88.80;;;;;;5014092;28;19912;-46
2022/11/09 07:19:37;;;;;;;;;;;11.60;88.80;;;;;;4996203;28;19921;-45
2022/11/09 07:22:06;;;;;;;;;;;11.60;88.80;;;;;;4996653;28;19917;-46
2022/11/09 07:24:31;;;;;;;;;;;11.60;88.80;;;;;;4997446;28;20340;-46
2022/11/09 07:26:58;;;;;;;;;;;11.70;88.70;;;;;;4997481;28;19945;-45
2022/11/09 07:29:24;;;;;;;;;;;11.70;88.80;;;;;;5014243;28;20403;-46
2022/11/09 07:31:51;;;;;;;;;;;11.70;88.60;;;;;;5016993;28;19920;-45
2022/11/09 07:34:18;;;;;;;;;;;11.70;88.60;;;;;;5016817;28;20394;-46
2022/11/09 07:36:46;;;;;;;;;;;11.70;88.70;;;;;;5008974;28;19913;-45
2022/11/09 07:39:13;;;;;;;;;;;11.70;88.70;;;;;;5012490;28;19905;-47
2022/11/09 07:41:39;;;;;;;;;;;11.70;88.60;;;;;;5012383;28;19910;-45
2022/11/09 07:44:06;;;;;;;;;;;11.70;88.70;;;;;;5004013;28;19909;-47
2022/11/09 07:46:34;;;;;;;;;;;11.70;88.80;;;;;;5012505;28;20370;-46
2022/11/09 07:49:01;;;;;;;;;;;11.70;89.00;;;;;;4996786;28;19906;-46
2022/11/09 07:51:28;;;;;;;;;;;11.70;89.00;;;;;;4997005;28;19910;-46
2022/11/09 07:53:55;;;;;;;;;;;11.80;89.00;;;;;;4996961;28;19928;-46
2022/11/09 07:56:20;;;;;;;;;;;11.90;88.80;;;;;;4996797;28;20393;-47
2022/11/09 07:58:48;;;;;;;;;;;11.90;88.70;;;;;;5008658;28;19920;-46
2022/11/09 08:01:15;;;;;;;;;;;11.90;88.60;;;;;;5015602;28;19975;-47
2022/11/09 08:03:41;;;;;;;;;;;11.90;88.60;;;;;;5015425;28;20398;-45
2022/11/09 08:06:08;;;;;;;;;;;12.00;88.60;;;;;;4997795;28;19945;-47
2022/11/09 08:08:35;;;;;;;;;;;12.00;88.40;;;;;;4996521;28;19906;-46
2022/11/09 08:11:00;;;;;;;;;;;12.10;88.40;;;;;;4996730;28;19909;-46
2022/11/09 08:13:26;;;;;;;;;;;12.10;88.20;;;;;;4999941;28;19920;-47
2022/11/09 08:15:51;;;;;;;;;;;12.20;88.00;;;;;;5016119;28;19909;-49
2022/11/09 08:18:19;;;;;;;;;;;12.30;87.80;;;;;;5015817;28;19925;-46
2022/11/09 08:20:47;;;;;;;;;;;12.30;87.70;;;;;;5016172;28;19906;-46
2022/11/09 08:23:14;;;;;;;;;;;12.40;87.30;;;;;;4994167;28;19968;-46
2022/11/09 08:25:41;;;;;;;;;;;12.40;87.20;;;;;;4995471;28;19917;-46
2022/11/09 08:28:07;;;;;;;;;;;12.50;86.80;;;;;;5002459;28;19913;-47
2022/11/09 08:30:32;;;;;;;;;;;12.60;86.20;;;;;;5011518;28;20365;-46
2022/11/09 08:33:00;;;;;;;;;;;12.60;86.10;;;;;;4996502;28;19920;-46
2022/11/09 08:35:27;;;;;;;;;;;12.70;85.80;;;;;;4994968;28;19929;-50
2022/11/09 08:37:53;;;;;;;;;;;12.70;85.60;;;;;;4995064;28;20347;-47
2022/11/09 08:40:22;;;;;;;;;;;12.90;85.50;;;;;;4995144;28;19920;-47
2022/11/09 08:42:49;;;;;;;;;;;12.90;85.20;;;;;;5011296;28;19909;-46
2022/11/09 08:45:16;;;;;;;;;;;13.00;85.10;;;;;;4995870;28;20308;-48
2022/11/09 08:47:43;;;;;;;;;;;13.00;84.70;;;;;;5010796;28;19921;-46
2022/11/09 08:50:11;;;;;;;;;;;13.20;84.40;;;;;;4994877;28;19921;-50
2022/11/09 08:52:39;;;;;;;;;;;13.40;83.60;;;;;;4994731;28;19913;-48
2022/11/09 08:55:07;;;;;;;;;;;13.50;83.30;;;;;;4994516;28;19922;-47
2022/11/09 08:57:32;;;;;;;;;;;13.60;82.90;;;;;;5002517;28;19956;-46
2022/11/09 08:59:59;;;;;;;;;;;13.80;82.50;;;;;;5015307;28;20476;-47
2022/11/09 09:02:24;;;;;;;;;;;13.90;81.90;;;;;;5006504;28;19913;-46
2022/11/09 09:04:50;;;;;;;;;;;13.90;81.10;;;;;;4995462;28;19996;-47
2022/11/09 09:07:16;;;;;;;;;;;14.10;80.90;;;;;;4994560;28;19905;-48
2022/11/09 09:09:43;;;;;;;;;;;14.10;80.80;;;;;;4995551;28;20009;-51
2022/11/09 09:12:10;;;;;;;;;;;14.10;80.40;;;;;;5000843;28;19910;-48
2022/11/09 09:14:36;;;;;;;;;;;14.00;81.00;;;;;;5014849;28;19923;-46
2022/11/09 09:17:01;;;;;;;;;;;13.90;80.60;;;;;;5014798;28;20250;-46
2022/11/09 09:19:32;;;;;;;;;;;14.00;80.90;;;;;;5011772;28;19961;-47
2022/11/09 09:21:58;;;;;;;;;;;14.10;80.80;;;;;;4995191;28;19905;-48
2022/11/09 09:24:25;;;;;;;;;;;14.20;80.50;;;;;;4994832;28;20009;-47
2022/11/09 09:26:54;;;;;;;;;;;14.20;80.30;;;;;;5000196;28;19910;-52
2022/11/09 09:29:21;;;;;;;;;;;14.30;79.70;;;;;;5013821;28;20338;-49
2022/11/09 09:31:48;;;;;;;;;;;14.40;79.90;;;;;;5009456;28;19910;-47
2022/11/09 09:34:14;;;;;;;;;;;14.40;79.90;;;;;;4993405;28;20291;-47
2022/11/09 09:36:40;;;;;;;;;;;14.40;80.00;;;;;;4994405;28;20371;-48
2022/11/09 09:39:05;;;;;;;;;;;14.50;79.60;;;;;;5010072;28;19997;-46
2022/11/09 09:41:50;;;;;;;;;;;14.40;79.00;;;;;;4995547;28;19937;-49
2022/11/09 09:44:30;;;;;;;;;;;14.40;79.50;;;;;;5012286;28;19910;-47
2022/11/09 09:46:55;;;;;;;;;;;14.40;79.80;;;;;;5014434;28;19905;-47
2022/11/09 09:49:25;;;;;;;;;;;14.50;79.20;;;;;;5014589;28;19976;-47
2022/11/09 09:52:09;;;;;;;;;;;14.60;79.10;;;;;;4992562;28;19984;-49
2022/11/09 09:54:56;;;;;;;;;;;14.60;78.70;;;;;;4994651;28;19944;-46
2022/11/09 09:57:27;;;;;;;;;;;14.60;78.80;;;;;;5002878;28;19921;-47
2022/11/09 09:59:55;;;;;;;;;;;14.60;78.40;;;;;;5014266;28;19957;-49
2022/11/09 10:02:39;;;;;;;;;;;14.70;78.50;;;;;;5013268;28;19996;-49
2022/11/09 10:05:10;;;;;;;;;;;14.80;78.60;;;;;;5009242;28;20390;-51
2022/11/09 10:07:54;;;;;;;;;;;14.70;78.70;;;;;;4994797;28;19913;-47
2022/11/09 10:10:20;;;;;;;;;;;14.80;78.50;;;;;;4993566;28;20277;-49
2022/11/09 10:12:52;;;;;;;;;;;14.80;78.30;;;;;;4997102;28;19914;-49
2022/11/09 10:15:17;;;;;;;;;;;14.80;78.90;;;;;;5009921;28;19924;-47
2022/11/09 10:18:01;;;;;;;;;;;14.90;78.40;;;;;;5009443;28;20258;-46
2022/11/09 10:20:47;;;;;;;;;;;14.80;78.40;;;;;;4993253;28;19917;-47
2022/11/09 10:23:31;;;;;;;;;;;14.90;78.10;;;;;;4993575;28;19916;-47
2022/11/09 10:26:17;;;;;;;;;;;14.80;77.50;;;;;;4994594;28;19928;-49
2022/11/09 10:28:55;;;;;;;;;;;14.90;77.80;;;;;;5007191;28;19964;-48
2022/11/09 10:31:22;;;;;;;;;;;14.90;77.80;;;;;;5009592;28;20298;-47
2022/11/09 10:33:52;;;;;;;;;;;15.00;78.10;;;;;;5011826;28;19910;-46
2022/11/09 10:36:22;;;;;;;;;;;15.00;78.30;;;;;;5011652;28;20401;-46
2022/11/09 10:38:50;;;;;;;;;;;15.00;76.90;;;;;;5017968;28;19967;-47
2022/11/09 10:41:23;;;;;;;;;;;15.00;76.90;;;;;;5016743;28;19971;-51
2022/11/09 10:43:48;;;;;;;;;;;15.00;76.60;;;;;;5000348;28;19920;-48
2022/11/09 10:46:16;;;;;;;;;;;14.90;77.70;;;;;;5003897;28;19917;-47
2022/11/09 10:48:44;;;;;;;;;;;14.90;77.90;;;;;;4998149;28;20456;-47
2022/11/09 10:51:29;;;;;;;;;;;14.80;77.80;;;;;;5012262;28;19914;-47
2022/11/09 10:54:12;;;;;;;;;;;14.80;77.90;;;;;;4997966;28;19912;-52
2022/11/09 10:56:50;;;;;;;;;;;14.80;77.20;;;;;;5004354;28;20278;-48
2022/11/09 10:59:35;;;;;;;;;;;14.80;77.10;;;;;;4996331;28;19914;-47
2022/11/09 11:02:25;;;;;;;;;;;14.60;77.70;;;;;;4997015;28;19905;-50
2022/11/09 11:04:51;;;;;;;;;;;14.70;78.00;;;;;;4997909;28;20341;-49
2022/11/09 11:07:21;;;;;;;;;;;14.80;77.40;;;;;;5010224;28;20374;-49
2022/11/09 11:09:49;;;;;;;;;;;14.90;77.60;;;;;;4996698;28;19909;-49
2022/11/09 11:12:16;;;;;;;;;;;14.90;77.40;;;;;;5010925;28;19917;-50
2022/11/09 11:14:43;;;;;;;;;;;14.80;77.30;;;;;;5012723;28;19923;-46
2022/11/09 11:17:25;;;;;;;;;;;14.80;77.00;;;;;;4997713;28;19912;-47
2022/11/09 11:19:52;;;;;;;;;;;14.70;76.20;;;;;;4996374;28;19933;-48
2022/11/09 11:22:22;;;;;;;;;;;14.60;76.90;;;;;;4997580;28;19909;-47
2022/11/09 11:24:58;;;;;;;;;;;14.80;77.20;;;;;;4996377;28;19941;-47
2022/11/09 11:27:35;;;;;;;;;;;14.90;78.00;;;;;;5013832;28;19921;-49
2022/11/09 11:30:07;;;;;;;;;;;14.90;77.30;;;;;;5011803;28;19953;-47
2022/11/09 11:32:33;;;;;;;;;;;14.90;77.20;;;;;;5015553;28;19913;-47
2022/11/09 11:34:58;;;;;;;;;;;14.90;76.70;;;;;;5006750;28;19964;-49
2022/11/09 11:37:24;;;;;;;;;;;14.90;76.90;;;;;;5012698;28;20247;-46
2022/11/09 11:40:01;;;;;;;;;;;14.70;77.90;;;;;;5012317;28;19913;-47
2022/11/09 11:42:45;;;;;;;;;;;14.70;77.80;;;;;;5012161;28;19927;-49
2022/11/09 11:45:38;;;;;;;;;;;14.60;78.20;;;;;;5001442;28;19916;-49
2022/11/09 11:48:24;;;;;;;;;;;14.60;78.00;;;;;;4997004;28;19910;-48
2022/11/09 11:50:59;;;;;;;;;;;14.60;78.00;;;;;;4997316;28;19913;-49
2022/11/09 11:53:43;;;;;;;;;;;14.70;77.40;;;;;;4995782;28;20362;-48
2022/11/09 11:56:28;;;;;;;;;;;14.80;77.60;;;;;;5001648;28;19976;-47
2022/11/09 11:59:08;;;;;;;;;;;14.90;77.30;;;;;;5009480;28;20331;-47
2022/11/09 12:01:52;;;;;;;;;;;15.00;76.90;;;;;;5011125;28;19950;-48
2022/11/09 12:04:18;;;;;;;;;;;14.90;77.10;;;;;;4996792;28;19910;-46
2022/11/09 12:07:02;;;;;;;;;;;14.90;76.30;;;;;;4996609;28;20001;-46
2022/11/09 12:09:37;;;;;;;;;;;14.80;77.50;;;;;;4996437;28;19913;-47
2022/11/09 12:12:12;;;;;;;;;;;14.90;77.70;;;;;;5007996;28;19977;-47
2022/11/09 12:14:54;;;;;;;;;;;15.10;75.60;;;;;;5010952;28;19913;-50
2022/11/09 12:17:28;;;;;;;;;;;15.00;75.40;;;;;;4996600;28;20264;-46
2022/11/09 12:20:00;;;;;;;;;;;15.00;75.10;;;;;;4996399;28;20474;-46
2022/11/09 12:22:25;;;;;;;;;;;14.90;75.30;;;;;;4996723;28;19909;-49
2022/11/09 12:24:58;;;;;;;;;;;14.90;75.60;;;;;;4996213;28;19913;-47
2022/11/09 12:27:42;;;;;;;;;;;14.80;76.50;;;;;;5012002;28;19909;-47
2022/11/09 12:30:16;;;;;;;;;;;14.70;76.90;;;;;;5015770;28;19917;-46
2022/11/09 12:33:00;;;;;;;;;;;14.60;77.20;;;;;;5015951;28;19937;-46
2022/11/09 12:35:38;;;;;;;;;;;14.60;77.20;;;;;;5006295;28;19913;-46
2022/11/09 12:38:21;;;;;;;;;;;14.60;77.50;;;;;;4995909;28;19917;-47
2022/11/09 12:40:53;;;;;;;;;;;14.50;77.90;;;;;;5000817;28;19909;-46
2022/11/09 12:43:21;;;;;;;;;;;14.50;77.80;;;;;;5013905;28;19936;-46
2022/11/09 12:45:48;;;;;;;;;;;14.50;77.90;;;;;;5009629;28;19924;-46
2022/11/09 12:48:13;;;;;;;;;;;14.50;77.50;;;;;;4994609;28;19910;-47
2022/11/09 12:50:40;;;;;;;;;;;14.40;78.10;;;;;;4995047;28;19914;-46
2022/11/09 12:53:07;;;;;;;;;;;14.40;78.50;;;;;;4995758;28;19906;-47
2022/11/09 12:55:52;;;;;;;;;;;14.40;78.30;;;;;;5001143;28;20448;-47
2022/11/09 12:58:23;;;;;;;;;;;14.40;78.20;;;;;;5010503;28;19910;-47
2022/11/09 13:00:51;;;;;;;;;;;14.40;78.50;;;;;;4995971;28;20580;-48
2022/11/09 13:03:20;;;;;;;;;;;14.40;78.70;;;;;;5008104;28;20004;-50
2022/11/09 13:05:48;;;;;;;;;;;14.40;78.50;;;;;;4995779;28;19921;-46
2022/11/09 13:08:19;;;;;;;;;;;14.40;78.50;;;;;;4995336;28;19909;-46
2022/11/09 13:11:05;;;;;;;;;;;14.30;78.90;;;;;;5003889;28;19917;-47
2022/11/09 13:13:32;;;;;;;;;;;14.20;79.30;;;;;;5015139;28;19905;-47
2022/11/09 13:16:08;;;;;;;;;;;14.20;79.90;;;;;;4996060;28;19914;-47
2022/11/09 13:18:34;;;;;;;;;;;14.20;80.30;;;;;;4995060;28;19924;-47
2022/11/09 13:21:18;;;;;;;;;;;14.10;80.20;;;;;;4995445;28;20012;-46
2022/11/09 13:23:45;;;;;;;;;;;14.10;79.50;;;;;;5010734;28;19910;-47
2022/11/09 13:26:29;;;;;;;;;;;14.00;79.20;;;;;;5009592;28;19909;-47
2022/11/09 13:29:13;;;;;;;;;;;14.00;79.20;;;;;;4993814;28;19913;-46
2022/11/09 13:31:58;;;;;;;;;;;13.90;79.70;;;;;;4994352;28;19917;-46
2022/11/09 13:34:39;;;;;;;;;;;13.90;79.40;;;;;;4994238;28;20394;-46
2022/11/09 13:37:25;;;;;;;;;;;13.80;79.50;;;;;;4994142;28;19996;-48
2022/11/09 13:39:51;;;;;;;;;;;13.90;79.60;;;;;;4996012;28;19920;-47
2022/11/09 13:42:23;;;;;;;;;;;13.90;79.50;;;;;;4992533;28;19913;-46
2022/11/09 13:44:50;;;;;;;;;;;13.90;78.90;;;;;;4993125;28;19920;-46
2022/11/09 13:47:28;;;;;;;;;;;14.10;78.50;;;;;;4994431;28;19954;-47
2022/11/09 13:49:55;;;;;;;;;;;14.00;78.60;;;;;;4994549;28;19909;-47
2022/11/09 13:52:39;;;;;;;;;;;14.00;78.50;;;;;;4993187;28;19996;-47
2022/11/09 13:55:17;;;;;;;;;;;14.00;78.70;;;;;;4999380;28;19917;-47
2022/11/09 13:57:44;;;;;;;;;;;13.90;79.10;;;;;;4996943;28;19924;-46
2022/11/09 14:00:25;;;;;;;;;;;13.90;79.20;;;;;;5014140;28;20312;-46
2022/11/09 14:02:53;;;;;;;;;;;13.90;79.30;;;;;;5013521;28;19906;-46
2022/11/09 14:05:38;;;;;;;;;;;13.90;79.70;;;;;;4993749;28;19925;-46
2022/11/09 14:08:04;;;;;;;;;;;13.90;80.00;;;;;;5009316;28;19936;-47
2022/11/09 14:10:35;;;;;;;;;;;13.80;79.90;;;;;;5005092;28;20211;-46
2022/11/09 14:13:19;;;;;;;;;;;13.70;80.70;;;;;;4997078;28;19940;-46
2022/11/09 14:15:57;;;;;;;;;;;13.70;81.00;;;;;;4993908;28;19914;-45
2022/11/09 14:18:41;;;;;;;;;;;13.60;81.90;;;;;;5008509;28;19922;-45
2022/11/09 14:21:21;;;;;;;;;;;13.50;83.00;;;;;;4993524;28;20041;-50
2022/11/09 14:23:48;;;;;;;;;;;13.40;84.10;;;;;;4993418;28;21957;-52
2022/11/09 14:26:16;;;;;;;;;;;13.30;84.80;;;;;;5009182;28;19917;-50
2022/11/09 14:28:42;;;;;;;;;;;13.20;85.00;;;;;;5013382;28;19913;-49
2022/11/09 14:31:22;;;;;;;;;;;13.10;85.50;;;;;;5007999;28;19914;-47